sensor_id;sensor_type;location;lat;lon;timestamp;P1;durP1;ratioP1;P2;durP2;ratioP2
23260;SDS011;11799;47.740;-3.390;2023-01-01T10:13:31;9.38;;;2.20;;
23260;SDS011;11799;47.740;-3.390;2023-01-01T10:18:55;12.93;;;1.90;;
23260;SDS011;11799;47.740;-3.390;2023-01-01T10:21:30;9.15;;;1.90;;
23260;SDS011;11799;47.740;-3.390;2023-01-01T10:23:59;14.23;;;2.28;;
23260;SDS011;11799;47.740;-3.390;2023-01-01T10:26:29;16.92;;;2.05;;
23260;SDS011;11799;47.740;-3.390;2023-01-01T10:31:44;11.55;;;2.28;;
23260;SDS011;11799;47.740;-3.390;2023-01-01T10:34:14;14.85;;;2.92;;
23260;SDS011;11799;47.740;-3.390;2023-01-01T10:36:43;11.00;;;2.03;;
23260;SDS011;11799;47.740;-3.390;2023-01-01T10:39:15;7.32;;;2.05;;
23260;SDS011;11799;47.740;-3.390;2023-01-01T10:41:42;13.00;;;2.63;;
23260;SDS011;11799;47.740;-3.390;2023-01-01T10:44:08;10.20;;;2.25;;
23260;SDS011;11799;47.740;-3.390;2023-01-01T10:46:36;12.57;;;3.40;;
23260;SDS011;11799;47.740;-3.390;2023-01-01T10:49:09;9.45;;;2.22;;
23260;SDS011;11799;47.740;-3.390;2023-01-01T10:51:43;15.77;;;2.70;;
23260;SDS011;11799;47.740;-3.390;2023-01-01T10:56:42;23.00;;;2.65;;
23260;SDS011;11799;47.740;-3.390;2023-01-01T11:02:14;13.27;;;3.00;;
23260;SDS011;11799;47.740;-3.390;2023-01-01T11:04:40;12.15;;;2.40;;
23260;SDS011;11799;47.740;-3.390;2023-01-01T11:07:06;14.30;;;2.22;;
23260;SDS011;11799;47.740;-3.390;2023-01-01T11:09:32;10.50;;;2.40;;
23260;SDS011;11799;47.740;-3.390;2023-01-01T11:12:06;12.45;;;2.83;;
23260;SDS011;11799;47.740;-3.390;2023-01-01T11:14:42;12.13;;;2.88;;
23260;SDS011;11799;47.740;-3.390;2023-01-01T11:17:19;19.13;;;3.35;;
23260;SDS011;11799;47.740;-3.390;2023-01-01T11:19:49;19.63;;;5.25;;
23260;SDS011;11799;47.740;-3.390;2023-01-01T11:25:16;17.63;;;3.47;;
23260;SDS011;11799;47.740;-3.390;2023-01-01T11:27:44;14.88;;;3.88;;
23260;SDS011;11799;47.740;-3.390;2023-01-01T11:32:50;16.38;;;3.35;;
23260;SDS011;11799;47.740;-3.390;2023-01-01T11:35:24;11.68;;;2.67;;
23260;SDS011;11799;47.740;-3.390;2023-01-01T11:37:52;10.48;;;2.90;;
23260;SDS011;11799;47.740;-3.390;2023-01-01T11:40:54;8.73;;;2.55;;
23260;SDS011;11799;47.740;-3.390;2023-01-01T11:43:36;8.07;;;2.22;;
23260;SDS011;11799;47.740;-3.390;2023-01-01T11:46:08;13.63;;;3.33;;
23260;SDS011;11799;47.740;-3.390;2023-01-01T11:48:38;10.85;;;2.38;;
23260;SDS011;11799;47.740;-3.390;2023-01-01T11:51:07;11.95;;;2.95;;
23260;SDS011;11799;47.740;-3.390;2023-01-01T11:53:39;13.88;;;3.08;;
23260;SDS011;11799;47.740;-3.390;2023-01-01T11:56:10;8.35;;;2.38;;
23260;SDS011;11799;47.740;-3.390;2023-01-01T12:03:41;16.70;;;3.60;;
23260;SDS011;11799;47.740;-3.390;2023-01-01T12:06:24;16.20;;;3.78;;
23260;SDS011;11799;47.740;-3.390;2023-01-01T12:09:12;14.65;;;4.20;;
23260;SDS011;11799;47.740;-3.390;2023-01-01T12:11:45;8.65;;;3.30;;
23260;SDS011;11799;47.740;-3.390;2023-01-01T12:14:18;14.55;;;4.35;;
23260;SDS011;11799;47.740;-3.390;2023-01-01T12:17:03;11.43;;;4.10;;
23260;SDS011;11799;47.740;-3.390;2023-01-01T12:22:25;15.38;;;3.63;;
23260;SDS011;11799;47.740;-3.390;2023-01-01T12:24:51;22.25;;;3.17;;
23260;SDS011;11799;47.740;-3.390;2023-01-01T12:30:21;15.15;;;3.28;;
23260;SDS011;11799;47.740;-3.390;2023-01-01T12:56:01;10.15;;;2.78;;
23260;SDS011;11799;47.740;-3.390;2023-01-01T12:58:39;8.52;;;2.53;;
23260;SDS011;11799;47.740;-3.390;2023-01-01T13:01:19;9.13;;;2.72;;
23260;SDS011;11799;47.740;-3.390;2023-01-01T13:03:50;11.02;;;2.65;;
23260;SDS011;11799;47.740;-3.390;2023-01-01T13:09:18;5.03;;;1.98;;
23260;SDS011;11799;47.740;-3.390;2023-01-01T13:12:21;7.10;;;2.90;;
23260;SDS011;11799;47.740;-3.390;2023-01-01T13:14:44;6.97;;;1.88;;
23260;SDS011;11799;47.740;-3.390;2023-01-01T13:19:44;7.68;;;2.85;;
23260;SDS011;11799;47.740;-3.390;2023-01-01T13:35:39;11.60;;;5.47;;
23260;SDS011;11799;47.740;-3.390;2023-01-01T13:38:31;10.88;;;6.43;;
23260;SDS011;11799;47.740;-3.390;2023-01-01T13:41:27;18.80;;;12.10;;
23260;SDS011;11799;47.740;-3.390;2023-01-01T13:49:04;20.48;;;12.20;;
23260;SDS011;11799;47.740;-3.390;2023-01-01T13:51:50;14.88;;;8.13;;
23260;SDS011;11799;47.740;-3.390;2023-01-01T13:54:36;12.55;;;5.60;;
23260;SDS011;11799;47.740;-3.390;2023-01-01T14:03:02;15.55;;;9.45;;
23260;SDS011;11799;47.740;-3.390;2023-01-01T14:07:56;11.68;;;7.32;;
23260;SDS011;11799;47.740;-3.390;2023-01-01T14:10:28;13.07;;;8.32;;
23260;SDS011;11799;47.740;-3.390;2023-01-01T14:15:45;17.83;;;9.68;;
23260;SDS011;11799;47.740;-3.390;2023-01-01T14:18:15;7.78;;;4.75;;
23260;SDS011;11799;47.740;-3.390;2023-01-01T14:20:50;11.20;;;5.18;;
23260;SDS011;11799;47.740;-3.390;2023-01-01T14:25:59;8.68;;;6.03;;
23260;SDS011;11799;47.740;-3.390;2023-01-01T14:28:32;7.97;;;5.53;;
23260;SDS011;11799;47.740;-3.390;2023-01-01T14:30:59;10.13;;;6.63;;
23260;SDS011;11799;47.740;-3.390;2023-01-01T14:33:32;17.05;;;9.05;;
23260;SDS011;11799;47.740;-3.390;2023-01-01T14:35:59;16.48;;;10.60;;
23260;SDS011;11799;47.740;-3.390;2023-01-01T14:38:30;15.48;;;9.00;;
23260;SDS011;11799;47.740;-3.390;2023-01-01T14:41:43;19.25;;;12.25;;
23260;SDS011;11799;47.740;-3.390;2023-01-01T14:43:55;13.95;;;8.55;;
23260;SDS011;11799;47.740;-3.390;2023-01-01T14:46:26;13.88;;;9.07;;
23260;SDS011;11799;47.740;-3.390;2023-01-01T14:48:54;12.23;;;8.48;;
23260;SDS011;11799;47.740;-3.390;2023-01-01T14:51:25;14.07;;;7.90;;
23260;SDS011;11799;47.740;-3.390;2023-01-01T14:53:54;12.70;;;8.25;;
23260;SDS011;11799;47.740;-3.390;2023-01-01T14:56:24;11.93;;;8.50;;
23260;SDS011;11799;47.740;-3.390;2023-01-01T14:58:52;15.20;;;8.07;;
23260;SDS011;11799;47.740;-3.390;2023-01-01T15:01:23;18.10;;;8.27;;
23260;SDS011;11799;47.740;-3.390;2023-01-01T15:04:00;13.57;;;8.18;;
23260;SDS011;11799;47.740;-3.390;2023-01-01T15:06:27;11.48;;;8.00;;
23260;SDS011;11799;47.740;-3.390;2023-01-01T15:08:54;11.43;;;8.65;;
23260;SDS011;11799;47.740;-3.390;2023-01-01T15:11:22;16.63;;;8.93;;
23260;SDS011;11799;47.740;-3.390;2023-01-01T15:13:52;15.13;;;9.95;;
23260;SDS011;11799;47.740;-3.390;2023-01-01T15:16:21;18.20;;;10.27;;
23260;SDS011;11799;47.740;-3.390;2023-01-01T15:18:47;13.95;;;9.82;;
23260;SDS011;11799;47.740;-3.390;2023-01-01T15:23:53;24.90;;;15.35;;
23260;SDS011;11799;47.740;-3.390;2023-01-01T15:26:24;57.78;;;34.03;;
23260;SDS011;11799;47.740;-3.390;2023-01-01T15:28:56;57.50;;;31.25;;
23260;SDS011;11799;47.740;-3.390;2023-01-01T15:31:31;28.45;;;15.77;;
23260;SDS011;11799;47.740;-3.390;2023-01-01T15:34:00;23.92;;;15.82;;
23260;SDS011;11799;47.740;-3.390;2023-01-01T15:36:26;23.67;;;17.58;;
23260;SDS011;11799;47.740;-3.390;2023-01-01T15:38:51;18.40;;;14.20;;
23260;SDS011;11799;47.740;-3.390;2023-01-01T15:44:07;13.13;;;10.48;;
23260;SDS011;11799;47.740;-3.390;2023-01-01T15:46:44;17.10;;;12.88;;
23260;SDS011;11799;47.740;-3.390;2023-01-01T15:49:22;37.83;;;17.10;;
23260;SDS011;11799;47.740;-3.390;2023-01-01T15:51:49;35.80;;;17.80;;
23260;SDS011;11799;47.740;-3.390;2023-01-01T15:54:16;18.17;;;9.10;;
23260;SDS011;11799;47.740;-3.390;2023-01-01T15:56:43;13.15;;;7.65;;
23260;SDS011;11799;47.740;-3.390;2023-01-01T16:04:39;14.63;;;6.32;;
23260;SDS011;11799;47.740;-3.390;2023-01-01T16:07:14;25.08;;;13.82;;
23260;SDS011;11799;47.740;-3.390;2023-01-01T16:09:43;14.60;;;8.75;;
23260;SDS011;11799;47.740;-3.390;2023-01-01T16:12:08;12.95;;;7.57;;
23260;SDS011;11799;47.740;-3.390;2023-01-01T16:14:34;13.55;;;6.90;;
23260;SDS011;11799;47.740;-3.390;2023-01-01T16:17:00;13.15;;;5.68;;
23260;SDS011;11799;47.740;-3.390;2023-01-01T16:19:26;17.15;;;6.90;;
23260;SDS011;11799;47.740;-3.390;2023-01-01T16:21:56;20.33;;;7.90;;
23260;SDS011;11799;47.740;-3.390;2023-01-01T16:24:22;14.50;;;6.72;;
23260;SDS011;11799;47.740;-3.390;2023-01-01T16:26:48;18.42;;;8.68;;
23260;SDS011;11799;47.740;-3.390;2023-01-01T16:29:14;20.73;;;8.25;;
23260;SDS011;11799;47.740;-3.390;2023-01-01T16:31:40;35.58;;;8.35;;
23260;SDS011;11799;47.740;-3.390;2023-01-01T16:34:10;22.25;;;11.77;;
23260;SDS011;11799;47.740;-3.390;2023-01-01T16:36:38;22.25;;;10.07;;
23260;SDS011;11799;47.740;-3.390;2023-01-01T16:39:03;23.08;;;11.48;;
23260;SDS011;11799;47.740;-3.390;2023-01-01T16:41:29;26.45;;;10.48;;
23260;SDS011;11799;47.740;-3.390;2023-01-01T16:43:55;24.58;;;8.90;;
23260;SDS011;11799;47.740;-3.390;2023-01-01T16:46:21;19.95;;;9.77;;
23260;SDS011;11799;47.740;-3.390;2023-01-01T16:48:47;20.42;;;11.23;;
23260;SDS011;11799;47.740;-3.390;2023-01-01T16:51:17;15.88;;;11.35;;
23260;SDS011;11799;47.740;-3.390;2023-01-01T16:53:45;11.60;;;9.32;;
23260;SDS011;11799;47.740;-3.390;2023-01-01T16:56:12;15.88;;;9.55;;
23260;SDS011;11799;47.740;-3.390;2023-01-01T16:58:38;10.93;;;7.97;;
23260;SDS011;11799;47.740;-3.390;2023-01-01T17:01:04;11.05;;;6.38;;
23260;SDS011;11799;47.740;-3.390;2023-01-01T17:03:31;6.90;;;5.00;;
23260;SDS011;11799;47.740;-3.390;2023-01-01T17:05:57;5.97;;;4.53;;
23260;SDS011;11799;47.740;-3.390;2023-01-01T17:08:29;8.98;;;4.68;;
23260;SDS011;11799;47.740;-3.390;2023-01-01T17:11:02;5.78;;;5.18;;
23260;SDS011;11799;47.740;-3.390;2023-01-01T17:13:33;4.45;;;4.03;;
23260;SDS011;11799;47.740;-3.390;2023-01-01T17:15:59;4.55;;;3.75;;
23260;SDS011;11799;47.740;-3.390;2023-01-01T17:18:25;3.72;;;3.35;;
23260;SDS011;11799;47.740;-3.390;2023-01-01T17:20:50;4.55;;;3.50;;
23260;SDS011;11799;47.740;-3.390;2023-01-01T17:23:16;3.42;;;2.70;;
23260;SDS011;11799;47.740;-3.390;2023-01-01T17:25:41;3.08;;;2.60;;
23260;SDS011;11799;47.740;-3.390;2023-01-01T17:28:07;3.20;;;2.45;;
23260;SDS011;11799;47.740;-3.390;2023-01-01T17:30:33;3.38;;;2.35;;
23260;SDS011;11799;47.740;-3.390;2023-01-01T17:32:58;8.57;;;2.22;;
23260;SDS011;11799;47.740;-3.390;2023-01-01T17:35:24;4.00;;;1.90;;
23260;SDS011;11799;47.740;-3.390;2023-01-01T17:37:49;2.10;;;1.90;;
23260;SDS011;11799;47.740;-3.390;2023-01-01T17:40:15;3.70;;;1.90;;
23260;SDS011;11799;47.740;-3.390;2023-01-01T17:42:40;2.42;;;1.98;;
23260;SDS011;11799;47.740;-3.390;2023-01-01T17:45:06;2.65;;;2.03;;
23260;SDS011;11799;47.740;-3.390;2023-01-01T17:47:33;1.88;;;1.73;;
23260;SDS011;11799;47.740;-3.390;2023-01-01T17:49:58;5.68;;;2.22;;
23260;SDS011;11799;47.740;-3.390;2023-01-01T17:52:24;4.43;;;2.88;;
23260;SDS011;11799;47.740;-3.390;2023-01-01T17:54:50;2.85;;;2.60;;
23260;SDS011;11799;47.740;-3.390;2023-01-01T17:57:16;2.80;;;2.50;;
23260;SDS011;11799;47.740;-3.390;2023-01-01T17:59:42;5.10;;;2.72;;
23260;SDS011;11799;47.740;-3.390;2023-01-01T18:02:11;3.50;;;2.65;;
23260;SDS011;11799;47.740;-3.390;2023-01-01T18:04:38;4.20;;;2.03;;
23260;SDS011;11799;47.740;-3.390;2023-01-01T18:07:04;5.57;;;1.88;;
23260;SDS011;11799;47.740;-3.390;2023-01-01T18:09:30;2.22;;;2.00;;
23260;SDS011;11799;47.740;-3.390;2023-01-01T18:11:55;2.33;;;1.88;;
23260;SDS011;11799;47.740;-3.390;2023-01-01T18:14:21;2.45;;;2.17;;
23260;SDS011;11799;47.740;-3.390;2023-01-01T18:16:47;3.20;;;2.50;;
23260;SDS011;11799;47.740;-3.390;2023-01-01T18:19:13;3.72;;;2.30;;
23260;SDS011;11799;47.740;-3.390;2023-01-01T18:21:39;2.58;;;2.10;;
23260;SDS011;11799;47.740;-3.390;2023-01-01T18:24:06;2.10;;;1.88;;
23260;SDS011;11799;47.740;-3.390;2023-01-01T18:26:37;3.58;;;2.10;;
23260;SDS011;11799;47.740;-3.390;2023-01-01T18:29:03;3.22;;;1.90;;
23260;SDS011;11799;47.740;-3.390;2023-01-01T18:31:30;3.42;;;2.17;;
23260;SDS011;11799;47.740;-3.390;2023-01-01T18:33:56;2.20;;;1.90;;
23260;SDS011;11799;47.740;-3.390;2023-01-01T18:36:23;3.30;;;1.80;;
23260;SDS011;11799;47.740;-3.390;2023-01-01T18:38:55;2.33;;;1.42;;
23260;SDS011;11799;47.740;-3.390;2023-01-01T18:44:18;3.13;;;1.30;;
23260;SDS011;11799;47.740;-3.390;2023-01-01T18:46:48;1.80;;;1.58;;
23260;SDS011;11799;47.740;-3.390;2023-01-01T18:49:35;3.65;;;1.52;;
23260;SDS011;11799;47.740;-3.390;2023-01-01T18:52:43;2.15;;;1.75;;
23260;SDS011;11799;47.740;-3.390;2023-01-01T18:55:00;3.67;;;1.60;;
23260;SDS011;11799;47.740;-3.390;2023-01-01T18:57:35;3.35;;;1.95;;
23260;SDS011;11799;47.740;-3.390;2023-01-01T19:00:12;2.28;;;1.75;;
23260;SDS011;11799;47.740;-3.390;2023-01-01T19:02:42;2.58;;;1.75;;
23260;SDS011;11799;47.740;-3.390;2023-01-01T19:07:40;2.50;;;2.08;;
23260;SDS011;11799;47.740;-3.390;2023-01-01T19:10:09;4.45;;;2.00;;
23260;SDS011;11799;47.740;-3.390;2023-01-01T19:12:37;3.25;;;1.85;;
23260;SDS011;11799;47.740;-3.390;2023-01-01T19:15:12;3.33;;;2.13;;
23260;SDS011;11799;47.740;-3.390;2023-01-01T19:17:43;3.03;;;2.22;;
23260;SDS011;11799;47.740;-3.390;2023-01-01T19:20:13;5.50;;;2.60;;
23260;SDS011;11799;47.740;-3.390;2023-01-01T19:22:40;2.17;;;1.95;;
23260;SDS011;11799;47.740;-3.390;2023-01-01T19:27:45;4.13;;;1.95;;
23260;SDS011;11799;47.740;-3.390;2023-01-01T19:30:18;5.55;;;2.20;;
23260;SDS011;11799;47.740;-3.390;2023-01-01T19:32:49;7.70;;;2.90;;
23260;SDS011;11799;47.740;-3.390;2023-01-01T19:35:14;11.48;;;7.03;;
23260;SDS011;11799;47.740;-3.390;2023-01-01T19:37:40;9.57;;;3.95;;
23260;SDS011;11799;47.740;-3.390;2023-01-01T19:40:05;7.00;;;3.42;;
23260;SDS011;11799;47.740;-3.390;2023-01-01T19:42:31;12.02;;;3.92;;
23260;SDS011;11799;47.740;-3.390;2023-01-01T19:44:57;7.68;;;3.90;;
23260;SDS011;11799;47.740;-3.390;2023-01-01T19:47:24;11.95;;;4.22;;
23260;SDS011;11799;47.740;-3.390;2023-01-01T19:49:50;10.25;;;4.35;;
23260;SDS011;11799;47.740;-3.390;2023-01-01T19:52:16;8.27;;;3.92;;
23260;SDS011;11799;47.740;-3.390;2023-01-01T19:54:41;12.02;;;4.50;;
23260;SDS011;11799;47.740;-3.390;2023-01-01T19:57:07;11.27;;;3.53;;
23260;SDS011;11799;47.740;-3.390;2023-01-01T19:59:32;10.38;;;3.88;;
23260;SDS011;11799;47.740;-3.390;2023-01-01T20:01:58;20.90;;;4.10;;
23260;SDS011;11799;47.740;-3.390;2023-01-01T20:04:23;10.77;;;3.10;;
23260;SDS011;11799;47.740;-3.390;2023-01-01T20:06:49;10.18;;;3.38;;
23260;SDS011;11799;47.740;-3.390;2023-01-01T20:09:14;9.98;;;3.42;;
23260;SDS011;11799;47.740;-3.390;2023-01-01T20:11:40;7.72;;;3.05;;
23260;SDS011;11799;47.740;-3.390;2023-01-01T20:14:05;5.72;;;3.05;;
23260;SDS011;11799;47.740;-3.390;2023-01-01T20:16:31;6.35;;;3.55;;
23260;SDS011;11799;47.740;-3.390;2023-01-01T20:18:58;4.88;;;2.67;;
23260;SDS011;11799;47.740;-3.390;2023-01-01T20:21:24;10.02;;;3.03;;
23260;SDS011;11799;47.740;-3.390;2023-01-01T20:24:08;13.90;;;3.00;;
23260;SDS011;11799;47.740;-3.390;2023-01-01T20:26:35;8.45;;;3.17;;
23260;SDS011;11799;47.740;-3.390;2023-01-01T20:29:00;7.18;;;3.38;;
23260;SDS011;11799;47.740;-3.390;2023-01-01T20:31:44;5.97;;;3.03;;
23260;SDS011;11799;47.740;-3.390;2023-01-01T20:34:11;6.70;;;2.78;;
23260;SDS011;11799;47.740;-3.390;2023-01-01T20:36:36;6.75;;;2.85;;
23260;SDS011;11799;47.740;-3.390;2023-01-01T20:39:21;5.97;;;2.45;;
23260;SDS011;11799;47.740;-3.390;2023-01-01T20:41:49;4.45;;;2.40;;
23260;SDS011;11799;47.740;-3.390;2023-01-01T20:44:15;5.30;;;2.65;;
23260;SDS011;11799;47.740;-3.390;2023-01-01T20:46:40;7.93;;;3.30;;
23260;SDS011;11799;47.740;-3.390;2023-01-01T20:49:06;9.45;;;3.30;;
23260;SDS011;11799;47.740;-3.390;2023-01-01T20:51:32;5.43;;;2.45;;
23260;SDS011;11799;47.740;-3.390;2023-01-01T20:53:58;9.05;;;3.15;;
23260;SDS011;11799;47.740;-3.390;2023-01-01T20:56:23;6.07;;;2.30;;
23260;SDS011;11799;47.740;-3.390;2023-01-01T20:58:49;11.27;;;2.78;;
23260;SDS011;11799;47.740;-3.390;2023-01-01T21:01:16;9.38;;;3.38;;
23260;SDS011;11799;47.740;-3.390;2023-01-01T21:03:42;9.88;;;3.90;;
23260;SDS011;11799;47.740;-3.390;2023-01-01T21:06:08;12.93;;;4.38;;
23260;SDS011;11799;47.740;-3.390;2023-01-01T21:08:33;9.00;;;3.92;;
23260;SDS011;11799;47.740;-3.390;2023-01-01T21:10:59;6.53;;;2.83;;
23260;SDS011;11799;47.740;-3.390;2023-01-01T21:13:24;7.10;;;3.00;;
23260;SDS011;11799;47.740;-3.390;2023-01-01T21:15:50;10.70;;;3.35;;
23260;SDS011;11799;47.740;-3.390;2023-01-01T21:18:19;11.13;;;3.85;;
23260;SDS011;11799;47.740;-3.390;2023-01-01T21:20:45;4.50;;;3.10;;
23260;SDS011;11799;47.740;-3.390;2023-01-01T21:23:16;9.82;;;4.43;;
23260;SDS011;11799;47.740;-3.390;2023-01-01T21:25:49;9.95;;;3.65;;
23260;SDS011;11799;47.740;-3.390;2023-01-01T21:28:15;5.93;;;3.90;;
23260;SDS011;11799;47.740;-3.390;2023-01-01T21:33:14;14.82;;;4.90;;
23260;SDS011;11799;47.740;-3.390;2023-01-01T21:35:53;16.15;;;5.82;;
23260;SDS011;11799;47.740;-3.390;2023-01-01T21:38:22;11.90;;;7.10;;
23260;SDS011;11799;47.740;-3.390;2023-01-01T21:40:53;14.63;;;7.70;;
23260;SDS011;11799;47.740;-3.390;2023-01-01T21:48:30;19.65;;;7.85;;
23260;SDS011;11799;47.740;-3.390;2023-01-01T21:51:01;15.27;;;7.45;;
23260;SDS011;11799;47.740;-3.390;2023-01-01T21:53:33;9.90;;;6.97;;
23260;SDS011;11799;47.740;-3.390;2023-01-01T21:59:13;18.02;;;5.43;;
23260;SDS011;11799;47.740;-3.390;2023-01-01T22:02:37;15.85;;;5.80;;
23260;SDS011;11799;47.740;-3.390;2023-01-01T22:04:56;22.05;;;7.28;;
23260;SDS011;11799;47.740;-3.390;2023-01-01T22:09:50;17.35;;;6.85;;
23260;SDS011;11799;47.740;-3.390;2023-01-01T22:12:24;11.93;;;6.90;;
23260;SDS011;11799;47.740;-3.390;2023-01-01T22:14:53;20.35;;;7.85;;
23260;SDS011;11799;47.740;-3.390;2023-01-01T22:17:24;17.90;;;7.38;;
23260;SDS011;11799;47.740;-3.390;2023-01-01T22:20:01;17.67;;;6.45;;
23260;SDS011;11799;47.740;-3.390;2023-01-01T22:22:44;15.68;;;7.18;;
23260;SDS011;11799;47.740;-3.390;2023-01-01T22:25:23;18.42;;;7.07;;
23260;SDS011;11799;47.740;-3.390;2023-01-01T22:27:51;21.13;;;7.15;;
23260;SDS011;11799;47.740;-3.390;2023-01-01T22:32:43;19.10;;;7.20;;
23260;SDS011;11799;47.740;-3.390;2023-01-01T22:35:17;18.75;;;8.32;;
23260;SDS011;11799;47.740;-3.390;2023-01-01T22:37:45;19.85;;;8.43;;
23260;SDS011;11799;47.740;-3.390;2023-01-01T22:42:59;19.20;;;7.03;;
23260;SDS011;11799;47.740;-3.390;2023-01-01T22:45:30;15.30;;;7.40;;
23260;SDS011;11799;47.740;-3.390;2023-01-01T22:48:01;16.83;;;6.60;;
23260;SDS011;11799;47.740;-3.390;2023-01-01T22:50:29;15.27;;;6.60;;
23260;SDS011;11799;47.740;-3.390;2023-01-01T22:52:56;14.35;;;6.22;;
23260;SDS011;11799;47.740;-3.390;2023-01-01T22:55:23;20.23;;;6.38;;
23260;SDS011;11799;47.740;-3.390;2023-01-01T22:57:49;18.40;;;6.55;;
23260;SDS011;11799;47.740;-3.390;2023-01-01T23:00:15;15.02;;;5.50;;
23260;SDS011;11799;47.740;-3.390;2023-01-01T23:02:42;14.02;;;6.30;;
23260;SDS011;11799;47.740;-3.390;2023-01-01T23:05:08;11.75;;;5.25;;
23260;SDS011;11799;47.740;-3.390;2023-01-01T23:07:34;12.05;;;5.00;;
23260;SDS011;11799;47.740;-3.390;2023-01-01T23:10:02;13.82;;;4.50;;
23260;SDS011;11799;47.740;-3.390;2023-01-01T23:12:29;17.25;;;4.07;;
23260;SDS011;11799;47.740;-3.390;2023-01-01T23:14:54;19.02;;;4.65;;
23260;SDS011;11799;47.740;-3.390;2023-01-01T23:17:39;16.33;;;3.97;;
23260;SDS011;11799;47.740;-3.390;2023-01-01T23:20:05;9.07;;;4.18;;
23260;SDS011;11799;47.740;-3.390;2023-01-01T23:22:41;9.32;;;4.47;;
23260;SDS011;11799;47.740;-3.390;2023-01-01T23:25:10;11.30;;;3.33;;
23260;SDS011;11799;47.740;-3.390;2023-01-01T23:27:39;11.63;;;2.65;;
23260;SDS011;11799;47.740;-3.390;2023-01-01T23:30:05;11.98;;;2.65;;
23260;SDS011;11799;47.740;-3.390;2023-01-01T23:32:31;10.07;;;2.80;;
23260;SDS011;11799;47.740;-3.390;2023-01-01T23:34:57;12.27;;;2.63;;
23260;SDS011;11799;47.740;-3.390;2023-01-01T23:37:23;10.75;;;2.10;;
23260;SDS011;11799;47.740;-3.390;2023-01-01T23:39:50;4.50;;;1.30;;
23260;SDS011;11799;47.740;-3.390;2023-01-01T23:42:16;3.35;;;1.13;;
23260;SDS011;11799;47.740;-3.390;2023-01-01T23:44:42;8.65;;;1.75;;
23260;SDS011;11799;47.740;-3.390;2023-01-01T23:47:07;4.13;;;1.30;;
23260;SDS011;11799;47.740;-3.390;2023-01-01T23:49:34;5.30;;;1.40;;
23260;SDS011;11799;47.740;-3.390;2023-01-01T23:52:00;5.03;;;1.70;;
23260;SDS011;11799;47.740;-3.390;2023-01-01T23:54:27;4.20;;;1.20;;
23260;SDS011;11799;47.740;-3.390;2023-01-01T23:56:53;4.07;;;1.10;;
23260;SDS011;11799;47.740;-3.390;2023-01-01T23:59:18;3.25;;;1.10;;
